Time;durP1;ratioP1;P1;durP2;ratioP2;P2;SDS_P1;SDS_P2;PMS_P1;PMS_P2;Temp;Humidity;BMP_temperature;BMP_pressure;BME280_temperature;BME280_humidity;BME280_pressure;Samples;Min_cycle;Max_cycle;Signal;HPM_P1;HPM_P2
2022/01/22 00:00:45;;;;;;;;;31.00;22.33;;;;;1.91;57.93;100688.75;5029414;28;45402;-80
2022/01/22 00:03:11;;;;;;;;;22.33;18.33;;;;;1.90;57.78;100687.88;5019684;28;45341;-80
2022/01/22 00:05:36;;;;;;;;;23.33;21.00;;;;;1.91;58.00;100688.75;5028936;28;45288;-80
2022/01/22 00:08:02;;;;;;;;;24.33;22.33;;;;;1.92;58.12;100700.91;5017271;28;45339;-80
2022/01/22 00:10:28;;;;;;;;;23.33;22.00;;;;;1.91;58.01;100696.56;5034876;28;45383;-80
2022/01/22 00:15:26;;;;;;;;;18.33;15.67;;;;;1.90;59.43;100697.41;5027509;28;45576;-80
2022/01/22 00:17:52;;;;;;;;;23.33;19.33;;;;;1.83;59.23;100692.94;5024947;28;45471;-80
2022/01/22 00:20:20;;;;;;;;;24.00;17.00;;;;;1.73;59.54;100690.13;5023866;28;45601;-80
2022/01/22 00:22:46;;;;;;;;;22.00;21.00;;;;;1.65;59.34;100690.84;5004936;28;46219;-80
2022/01/22 00:25:13;;;;;;;;;21.67;20.67;;;;;1.59;59.45;100685.50;5027727;28;45323;-80
2022/01/22 00:27:42;;;;;;;;;30.67;22.00;;;;;1.59;59.72;100690.69;5017983;28;45465;-81
2022/01/22 00:30:10;;;;;;;;;31.00;29.33;;;;;1.57;59.78;100692.38;5025460;28;45485;-80
2022/01/22 00:32:36;;;;;;;;;33.33;26.67;;;;;1.54;60.15;100693.19;5019409;28;48237;-80
2022/01/22 00:35:02;;;;;;;;;30.00;25.33;;;;;1.52;59.79;100689.69;5025412;28;45398;-81
2022/01/22 00:37:27;;;;;;;;;32.00;24.67;;;;;1.50;59.75;100695.72;5029201;28;45557;-80
2022/01/22 00:39:53;;;;;;;;;28.33;25.00;;;;;1.47;59.78;100686.13;5023023;28;45533;-80
2022/01/22 00:42:20;;;;;;;;;18.67;14.67;;;;;1.43;59.94;100694.69;5030788;28;46323;-80
2022/01/22 00:44:46;;;;;;;;;24.67;22.33;;;;;1.41;60.27;100701.56;5035674;28;45393;-80
2022/01/22 00:47:12;;;;;;;;;30.00;22.67;;;;;1.38;60.20;100704.09;5032509;28;45492;-80
2022/01/22 00:49:38;;;;;;;;;28.67;26.33;;;;;1.36;59.96;100698.84;5034765;28;45544;-80
2022/01/22 00:52:04;;;;;;;;;23.33;23.33;;;;;1.33;60.16;100705.75;5030266;28;45943;-79
2022/01/22 00:54:31;;;;;;;;;29.33;26.67;;;;;1.32;59.66;100709.19;5035121;28;45409;-80
2022/01/22 00:56:57;;;;;;;;;28.00;21.67;;;;;1.32;60.32;100706.56;5036964;28;45401;-80
2022/01/22 00:59:22;;;;;;;;;23.67;19.67;;;;;1.30;59.87;100706.53;5026077;28;45472;-79
2022/01/22 01:01:47;;;;;;;;;20.67;19.67;;;;;1.31;60.07;100710.00;5037462;28;46210;-79
2022/01/22 01:04:13;;;;;;;;;29.33;24.00;;;;;1.28;59.87;100716.00;5035391;28;45586;-80
2022/01/22 01:06:39;;;;;;;;;25.67;20.67;;;;;1.28;60.13;100728.13;5037444;28;45427;-80
2022/01/22 01:09:08;;;;;;;;;24.67;21.67;;;;;1.25;60.06;100718.53;5036874;28;45438;-80
2022/01/22 01:11:37;;;;;;;;;20.67;20.33;;;;;1.23;60.43;100720.22;5028810;28;45589;-80
2022/01/22 01:14:04;;;;;;;;;18.67;16.67;;;;;1.23;60.07;100721.94;5034638;28;45465;-80
2022/01/22 01:32:59;;;;;;;;;16.33;16.33;;;;;1.03;61.80;100732.72;5037348;28;45838;-79
2022/01/22 01:35:27;;;;;;;;;31.67;23.00;;;;;1.05;61.86;100727.56;5002796;28;45489;-80
2022/01/22 01:37:54;;;;;;;;;25.33;23.67;;;;;1.06;61.75;100734.53;5026530;28;45541;-80
2022/01/22 01:40:22;;;;;;;;;28.67;24.33;;;;;1.07;61.67;100725.91;5034221;28;45528;-80
2022/01/22 01:43:01;;;;;;;;;18.33;17.00;;;;;1.09;61.68;100725.94;5022882;28;47022;-80
2022/01/22 01:45:27;;;;;;;;;28.00;22.67;;;;;1.10;61.79;100725.97;5036822;28;45383;-80
2022/01/22 01:47:54;;;;;;;;;31.00;24.67;;;;;1.13;61.60;100727.78;5035542;28;45399;-80
2022/01/22 01:50:20;;;;;;;;;29.33;25.00;;;;;1.15;61.42;100733.88;5036121;28;45461;-80
2022/01/22 01:52:51;;;;;;;;;32.33;29.00;;;;;1.15;61.52;100726.97;5035169;28;46087;-80
2022/01/22 01:55:21;;;;;;;;;23.00;21.67;;;;;1.15;61.94;100729.56;5036118;28;45476;-79
2022/01/22 01:57:47;;;;;;;;;28.00;22.33;;;;;1.10;62.92;100720.78;5034716;28;45421;-80
2022/01/22 02:00:19;;;;;;;;;24.67;20.67;;;;;1.06;61.80;100729.34;5035544;28;45445;-80
2022/01/22 02:02:46;;;;;;;;;26.00;20.67;;;;;1.00;61.84;100734.41;5037005;28;46233;-80
2022/01/22 02:05:13;;;;;;;;;24.33;22.00;;;;;0.92;61.85;100726.41;5037138;28;45508;-80
2022/01/22 02:07:42;;;;;;;;;32.00;26.33;;;;;0.86;62.31;100717.59;5022358;28;45420;-80
2022/01/22 02:10:13;;;;;;;;;27.67;22.67;;;;;0.83;62.59;100721.00;5036800;28;45536;-80
2022/01/22 02:23:43;;;;;;;;;31.67;30.00;;;;;0.79;62.99;100721.75;5023169;28;45802;-79
2022/01/22 02:26:10;;;;;;;;;34.67;32.00;;;;;0.80;63.08;100718.34;5009054;28;45661;-80
2022/01/22 02:28:37;;;;;;;;;37.33;30.67;;;;;0.80;63.45;100714.84;5034065;28;45377;-80
2022/01/22 02:31:21;;;;;;;;;23.67;23.00;;;;;0.81;63.19;100716.63;5036568;28;45413;-80
2022/01/22 02:36:39;;;;;;;;;33.33;29.33;;;;;0.82;63.38;100715.78;5032668;28;45387;-80
2022/01/22 02:39:17;;;;;;;;;34.00;29.67;;;;;0.82;63.42;100715.78;5027603;28;45492;-80
2022/01/22 02:41:47;;;;;;;;;34.33;29.67;;;;;0.84;63.22;100714.09;5036172;28;45505;-79
2022/01/22 02:44:21;;;;;;;;;40.33;34.33;;;;;0.82;63.52;100703.69;5027858;28;47388;-80
2022/01/22 02:46:48;;;;;;;;;33.00;29.33;;;;;0.83;63.56;100708.03;5024100;28;45307;-80
2022/01/22 02:49:14;;;;;;;;;34.33;28.00;;;;;0.84;63.45;100708.91;5006584;28;45530;-80
2022/01/22 02:51:39;;;;;;;;;51.67;40.67;;;;;0.84;63.92;100714.94;5035929;28;45541;-80
2022/01/22 02:54:05;;;;;;;;;48.00;41.00;;;;;0.86;63.93;100714.97;5026193;28;46662;-80
2022/01/22 02:56:30;;;;;;;;;47.25;36.75;;;;;0.86;63.81;100714.97;5027325;28;45372;-80
2022/01/22 02:58:58;;;;;;;;;50.33;42.33;;;;;0.89;63.80;100722.84;5030567;28;45423;-80
2022/01/22 03:01:24;;;;;;;;;42.33;35.00;;;;;0.88;63.56;100713.31;5034741;28;45577;-80
2022/01/22 03:03:49;;;;;;;;;35.00;31.67;;;;;0.88;63.28;100719.38;5023018;28;46323;-80
2022/01/22 03:06:15;;;;;;;;;30.67;30.67;;;;;0.86;63.52;100715.88;5034463;28;45261;-80
2022/01/22 03:08:42;;;;;;;;;38.33;34.33;;;;;0.86;63.28;100710.66;5034569;28;45620;-80
2022/01/22 03:11:18;;;;;;;;;28.00;23.67;;;;;0.86;63.06;100710.66;5025103;28;45378;-80
2022/01/22 03:16:32;;;;;;;;;27.67;25.33;;;;;0.86;62.94;100713.28;5029354;28;45482;-80
2022/01/22 03:29:31;;;;;;;;;26.33;26.00;;;;;0.77;63.73;100722.56;5035904;28;45484;-80
2022/01/22 03:31:56;;;;;;;;;31.67;28.67;;;;;0.74;63.57;100720.75;5035890;28;45467;-80
2022/01/22 03:34:22;;;;;;;;;34.67;29.67;;;;;0.74;63.84;100728.53;5035583;28;45254;-79
2022/01/22 03:36:47;;;;;;;;;33.33;30.00;;;;;0.73;64.04;100726.78;5035333;28;45314;-80
2022/01/22 03:39:13;;;;;;;;;36.67;30.67;;;;;0.72;63.83;100722.44;5023414;28;45822;-80
2022/01/22 03:41:38;;;;;;;;;32.33;27.00;;;;;0.71;63.92;100720.69;5029345;28;45480;-80
2022/01/22 03:44:05;;;;;;;;;40.67;31.67;;;;;0.72;63.95;100722.44;5027970;28;45378;-80
2022/01/22 03:46:32;;;;;;;;;31.33;26.67;;;;;0.72;63.71;100717.25;5032760;28;45459;-80
2022/01/22 03:48:58;;;;;;;;;32.33;28.00;;;;;0.74;64.03;100719.88;5031631;28;45254;-80
2022/01/22 03:51:23;;;;;;;;;36.00;30.67;;;;;0.74;63.87;100722.47;5034746;28;45440;-80
2022/01/22 03:53:49;;;;;;;;;31.67;28.00;;;;;0.75;63.86;100725.13;5034862;28;45441;-80
2022/01/22 03:56:14;;;;;;;;;33.33;29.00;;;;;0.77;63.84;100725.16;5034054;28;45306;-80
2022/01/22 03:58:43;;;;;;;;;36.00;29.33;;;;;0.77;64.02;100726.03;5035181;28;45326;-80
2022/01/22 04:03:44;;;;;;;;;32.67;31.67;;;;;0.78;64.19;100711.34;5022914;28;45331;-80
2022/01/22 04:06:36;;;;;;;;;25.67;20.33;;;;;0.77;64.10;100709.59;5033461;28;45480;-80
2022/01/22 04:08:58;;;;;;;;;31.00;25.00;;;;;0.75;64.17;100709.53;5021866;28;45434;-80
2022/01/22 04:11:23;;;;;;;;;44.00;32.33;;;;;0.74;64.27;100707.78;5017347;28;45503;-79
2022/01/22 04:13:52;;;;;;;;;39.00;33.00;;;;;0.70;64.46;100706.81;5034947;28;45597;-80
2022/01/22 04:16:17;;;;;;;;;41.33;34.67;;;;;0.66;64.24;100702.41;5024406;28;45252;-79
2022/01/22 04:26:58;;;;;;;;;34.67;31.67;;;;;0.45;64.56;100719.16;5030229;28;45277;-79
2022/01/22 04:29:26;;;;;;;;;29.00;26.00;;;;;0.41;64.70;100727.69;5033477;28;45413;-80
2022/01/22 04:31:52;;;;;;;;;27.00;26.67;;;;;0.35;64.65;100720.59;5026508;28;45385;-79
2022/01/22 04:34:18;;;;;;;;;36.33;24.00;;;;;0.30;64.45;100724.81;5034407;28;45604;-79
2022/01/22 04:36:43;;;;;;;;;29.00;26.67;;;;;0.27;64.58;100725.59;5016589;28;45404;-79
2022/01/22 04:39:10;;;;;;;;;22.67;21.33;;;;;0.25;64.83;100729.88;5034881;28;45511;-80
2022/01/22 04:41:36;;;;;;;;;30.00;23.00;;;;;0.25;65.15;100735.06;5034337;28;45489;-79
2022/01/22 04:44:04;;;;;;;;;24.00;22.00;;;;;0.23;65.51;100739.31;5025604;28;48116;-79
2022/01/22 04:57:22;;;;;;;;;45.00;35.00;;;;;0.19;65.96;100741.78;5028125;28;45509;-80
2022/01/22 04:59:47;;;;;;;;;37.00;29.67;;;;;0.20;65.69;100740.94;5025017;28;45506;-79
2022/01/22 05:02:13;;;;;;;;;34.00;31.33;;;;;0.20;65.70;100740.94;5019152;28;45507;-80
2022/01/22 05:04:39;;;;;;;;;34.33;28.33;;;;;0.22;65.65;100744.47;5032494;28;46523;-79
2022/01/22 05:07:04;;;;;;;;;38.00;27.67;;;;;0.23;65.49;100754.88;5033662;28;45439;-79
2022/01/22 05:09:30;;;;;;;;;24.33;23.00;;;;;0.24;65.25;100753.16;5029165;28;45319;-79
2022/01/22 05:11:56;;;;;;;;;23.67;20.33;;;;;0.20;65.63;100759.09;5034737;28;45253;-79
2022/01/22 05:14:23;;;;;;;;;23.00;19.67;;;;;0.19;65.29;100752.16;5030388;28;47961;-79
2022/01/22 05:16:49;;;;;;;;;23.00;20.33;;;;;0.18;65.60;100753.88;5028296;28;45525;-80
2022/01/22 05:19:34;;;;;;;;;31.00;23.00;;;;;0.17;65.23;100748.66;5022594;28;45497;-79
2022/01/22 05:22:09;;;;;;;;;33.00;29.00;;;;;0.16;65.62;100754.69;5030087;28;45394;-80
2022/01/22 05:24:38;;;;;;;;;25.33;20.00;;;;;0.15;65.47;100756.41;5029609;28;45374;-79
2022/01/22 05:37:14;;;;;;;;;42.00;35.00;;;;;0.19;65.34;100759.94;5037457;28;45250;-80
2022/01/22 05:39:40;;;;;;;;;59.50;47.25;;;;;0.20;65.27;100767.75;5029859;28;45441;-79
2022/01/22 05:42:09;;;;;;;;;69.75;53.75;;;;;0.21;65.60;100766.91;5028420;28;45366;-80
2022/01/22 05:44:35;;;;;;;;;47.25;39.50;;;;;0.21;65.43;100766.91;5036058;28;46709;-80
2022/01/22 05:47:05;;;;;;;;;64.00;50.00;;;;;0.21;65.32;100764.31;5022356;28;45480;-79
2022/01/22 05:49:34;;;;;;;;;66.25;53.25;;;;;0.21;65.40;100769.50;5013438;28;45267;-79
2022/01/22 05:52:02;;;;;;;;;67.50;50.00;;;;;0.20;65.47;100765.16;5032324;28;45575;-80
2022/01/22 05:59:39;;;;;;;;;44.00;38.75;;;;;0.19;65.49;100768.59;5006194;28;45413;-79
2022/01/22 06:02:10;;;;;;;;;33.67;30.67;;;;;0.20;65.47;100777.25;5017103;28;45335;-79
2022/01/22 06:04:36;;;;;;;;;49.67;36.67;;;;;0.19;65.55;100780.69;5015565;28;45539;-79
2022/01/22 06:07:04;;;;;;;;;40.67;34.00;;;;;0.19;65.57;100773.78;5016424;28;45426;-79
2022/01/22 06:09:31;;;;;;;;;33.00;30.00;;;;;0.20;65.69;100769.47;5016745;28;45531;-81
2022/01/22 06:12:04;;;;;;;;;31.67;31.33;;;;;0.19;65.48;100776.38;5025866;28;45557;-79
2022/01/22 06:14:30;;;;;;;;;26.00;20.33;;;;;0.18;65.35;100778.91;5005786;28;45545;-79
2022/01/22 06:16:55;;;;;;;;;34.00;28.33;;;;;0.16;65.34;100773.72;5029937;28;45311;-79
2022/01/22 06:19:21;;;;;;;;;36.33;30.33;;;;;0.15;65.65;100776.25;5004981;28;45365;-79
2022/01/22 06:21:46;;;;;;;;;24.00;23.33;;;;;0.14;65.24;100771.91;5003344;28;45649;-79
2022/01/22 06:24:12;;;;;;;;;30.00;23.67;;;;;0.15;65.51;100773.66;5014035;28;46168;-79
2022/01/22 06:26:39;;;;;;;;;28.00;25.00;;;;;0.14;65.35;100777.09;5003643;28;45383;-79
2022/01/22 06:29:04;;;;;;;;;23.33;22.67;;;;;0.15;65.23;100784.03;5026702;28;45494;-79
2022/01/22 06:31:30;;;;;;;;;21.67;19.00;;;;;0.13;65.46;100785.72;5014366;28;45610;-79
2022/01/22 06:33:58;;;;;;;;;24.33;22.00;;;;;0.14;65.64;100790.94;4999733;28;47243;-79
2022/01/22 06:36:23;;;;;;;;;26.67;22.00;;;;;0.14;65.21;100785.75;5009936;28;45397;-79
2022/01/22 06:38:55;;;;;;;;;26.67;26.00;;;;;0.10;65.01;100791.69;5005618;28;45394;-79
2022/01/22 06:42:03;;;;;;;;;21.67;20.00;;;;;0.11;65.66;100796.03;5030417;28;45508;-79
2022/01/22 06:44:10;;;;;;;;;27.33;23.67;;;;;0.11;65.61;100792.56;5011021;28;46542;-80
2022/01/22 06:46:35;;;;;;;;;26.00;24.00;;;;;0.08;65.73;100789.88;5016382;28;45437;-79
2022/01/22 06:49:01;;;;;;;;;23.67;22.00;;;;;0.08;65.59;100795.06;5036407;28;45353;-79
2022/01/22 06:51:27;;;;;;;;;18.00;14.67;;;;;0.08;65.92;100793.34;5034379;28;45331;-79
2022/01/22 06:53:53;;;;;;;;;24.00;21.67;;;;;0.07;65.82;100796.78;5036495;28;46570;-79
2022/01/22 06:56:21;;;;;;;;;22.33;20.33;;;;;0.07;65.86;100795.91;5015035;28;45467;-80
2022/01/22 06:58:50;;;;;;;;;22.00;21.33;;;;;0.06;66.01;100797.59;5029430;28;45409;-79
2022/01/22 07:01:16;;;;;;;;;25.33;25.33;;;;;0.05;65.86;100800.16;5035923;28;45495;-79
2022/01/22 07:03:42;;;;;;;;;24.33;19.00;;;;;0.07;66.04;100801.97;5035978;28;45973;-79
2022/01/22 07:06:08;;;;;;;;;27.00;27.00;;;;;0.07;65.76;100801.97;5029056;28;45417;-80
2022/01/22 07:08:33;;;;;;;;;37.67;31.00;;;;;0.08;66.27;100800.25;5029139;28;45437;-80
2022/01/22 07:10:59;;;;;;;;;44.00;37.33;;;;;0.08;66.13;100811.50;5022824;28;45375;-80
2022/01/22 07:13:24;;;;;;;;;37.33;30.00;;;;;0.05;66.08;100810.53;5022407;28;45676;-79
2022/01/22 07:15:50;;;;;;;;;37.33;32.33;;;;;0.04;66.30;100812.22;5034350;28;45670;-80
2022/01/22 07:18:15;;;;;;;;;35.33;34.00;;;;;0.01;66.30;100817.31;5035756;28;45394;-80
2022/01/22 07:20:43;;;;;;;;;33.33;27.33;;;;;0.00;66.23;100813.00;5032047;28;45500;-80
2022/01/22 07:25:41;;;;;;;;;33.00;27.33;;;;;0.05;66.45;100823.47;5023333;28;45314;-80
2022/01/22 07:28:06;;;;;;;;;34.33;30.67;;;;;0.04;66.22;100826.91;5034072;28;45397;-80
2022/01/22 07:30:32;;;;;;;;;28.00;23.33;;;;;0.03;66.49;100823.44;5024314;28;45565;-80
2022/01/22 07:32:58;;;;;;;;;30.67;30.00;;;;;0.02;66.82;100828.56;5027731;28;46327;-80
2022/01/22 07:35:24;;;;;;;;;34.67;33.33;;;;;-0.01;67.28;100819.03;5033585;28;45684;-80
2022/01/22 07:37:49;;;;;;;;;40.00;33.00;;;;;-0.04;67.10;100825.00;5034778;28;45375;-80
2022/01/22 07:40:15;;;;;;;;;40.33;31.00;;;;;-0.03;67.04;100821.56;5029263;28;45387;-81
2022/01/22 07:42:41;;;;;;;;;29.33;25.67;;;;;-0.05;66.90;100819.75;5017101;28;47647;-80
2022/01/22 07:45:09;;;;;;;;;28.67;26.67;;;;;-0.07;66.60;100819.72;5034421;28;45513;-80
2022/01/22 07:47:34;;;;;;;;;32.00;28.00;;;;;-0.07;67.14;100818.81;5019358;28;45380;-80
2022/01/22 07:50:00;;;;;;;;;30.00;23.00;;;;;-0.05;67.33;100818.03;5047745;28;45497;-80
2022/01/22 07:52:26;;;;;;;;;35.33;27.33;;;;;-0.02;67.35;100815.53;5033910;28;46384;-80
2022/01/22 07:54:52;;;;;;;;;48.00;35.33;;;;;0.04;67.14;100817.41;5024105;28;45472;-80
2022/01/22 07:57:17;;;;;;;;;30.67;25.33;;;;;0.07;67.30;100811.44;5021975;28;45263;-80
2022/01/22 07:59:42;;;;;;;;;45.00;41.67;;;;;0.10;67.01;100817.63;5028066;28;45661;-80
2022/01/22 08:02:08;;;;;;;;;41.00;37.33;;;;;0.13;67.01;100809.03;5033818;28;47828;-80
2022/01/22 08:04:34;;;;;;;;;35.33;26.00;;;;;0.16;66.98;100816.91;5035349;28;45387;-80
2022/01/22 08:07:03;;;;;;;;;33.00;31.33;;;;;0.21;67.02;100820.50;5034469;28;45529;-80
2022/01/22 08:09:29;;;;;;;;;61.00;44.33;;;;;0.25;66.86;100817.16;5031279;28;45496;-79
2022/01/22 08:11:54;;;;;;;;;45.00;34.33;;;;;0.31;66.86;100818.22;5020957;28;45219;-79
2022/01/22 08:14:20;;;;;;;;;43.33;35.67;;;;;0.37;66.88;100819.22;5033761;28;45425;-79
2022/01/22 08:16:49;;;;;;;;;50.33;39.33;;;;;0.41;66.83;100821.94;5016284;28;45402;-80
2022/01/22 08:19:16;;;;;;;;;39.00;34.33;;;;;0.49;66.28;100814.41;5022088;28;45427;-79
2022/01/22 08:21:44;;;;;;;;;51.00;36.33;;;;;0.55;66.30;100815.41;5013833;28;48337;-81
2022/01/22 08:24:10;;;;;;;;;47.67;37.67;;;;;0.62;66.31;100821.66;5026202;28;45416;-80
2022/01/22 08:26:41;;;;;;;;;37.33;29.00;;;;;0.67;65.96;100826.13;5016023;28;45543;-80
2022/01/22 08:29:06;;;;;;;;;39.00;32.33;;;;;0.73;65.69;100825.41;5016012;28;45525;-79
2022/01/22 08:36:44;;;;;;;;;54.67;40.00;;;;;0.91;65.44;100832.81;5034165;28;45360;-80
2022/01/22 08:39:11;;;;;;;;;46.00;38.67;;;;;0.95;65.29;100830.34;5016323;28;45512;-80
2022/01/22 08:41:37;;;;;;;;;40.00;34.33;;;;;1.00;64.92;100830.47;5032456;28;46086;-80
2022/01/22 08:44:03;;;;;;;;;34.00;31.00;;;;;1.05;64.82;100829.72;5033645;28;45406;-80
2022/01/22 08:46:30;;;;;;;;;38.33;33.67;;;;;1.12;64.88;100833.38;5033800;28;45469;-69
2022/01/22 08:48:56;;;;;;;;;25.33;24.00;;;;;1.29;64.47;100832.06;5020131;28;45643;-65
2022/01/22 08:51:21;;;;;;;;;33.33;28.67;;;;;1.39;64.07;100828.84;5032549;28;46070;-64
2022/01/22 08:53:48;;;;;;;;;42.00;29.33;;;;;1.48;64.15;100825.59;5029576;28;45589;-64
2022/01/22 08:56:14;;;;;;;;;28.33;25.00;;;;;1.52;63.46;100832.59;5027875;28;45554;-64
2022/01/22 08:58:39;;;;;;;;;31.00;27.33;;;;;1.55;63.39;100829.22;5013878;28;46162;-64
2022/01/22 09:01:06;;;;;;;;;32.33;29.33;;;;;1.59;63.40;100831.03;5027420;28;46311;-64
2022/01/22 09:03:32;;;;;;;;;37.00;34.33;;;;;1.62;63.25;100834.59;5030839;28;45546;-65
2022/01/22 09:05:58;;;;;;;;;41.67;34.33;;;;;1.68;63.15;100831.25;5033950;28;45454;-64
2022/01/22 09:08:25;;;;;;;;;35.00;31.33;;;;;1.72;62.97;100830.47;5036935;28;45527;-64
2022/01/22 09:10:52;;;;;;;;;40.67;32.00;;;;;1.77;62.83;100825.41;5034971;28;45582;-65
2022/01/22 09:13:19;;;;;;;;;37.33;30.67;;;;;1.78;62.80;100828.03;5023049;28;45375;-65
2022/01/22 09:15:44;;;;;;;;;40.00;33.00;;;;;1.81;62.71;100822.91;5031910;28;45483;-65
2022/01/22 09:18:10;;;;;;;;;43.67;32.33;;;;;1.87;62.89;100837.75;5036487;28;45661;-66
2022/01/22 09:23:05;;;;;;;;;36.00;33.00;;;;;1.95;62.79;100831.00;5034190;28;45479;-71
2022/01/22 09:25:30;;;;;;;;;40.00;34.00;;;;;1.97;62.30;100826.72;5026110;28;45537;-68
2022/01/22 09:27:56;;;;;;;;;36.33;33.67;;;;;1.99;62.26;100825.03;5030072;28;45360;-65
2022/01/22 09:30:23;;;;;;;;;41.67;32.67;;;;;2.04;62.28;100826.00;5010620;28;48473;-73
2022/01/22 09:32:48;;;;;;;;;58.33;47.33;;;;;2.09;62.27;100816.56;5027148;28;45896;-74
2022/01/22 09:35:14;;;;;;;;;50.67;40.33;;;;;2.13;61.82;100820.13;5029999;28;45382;-75
2022/01/22 09:37:40;;;;;;;;;50.00;41.33;;;;;2.15;61.54;100821.91;5033324;28;45392;-74
2022/01/22 09:40:06;;;;;;;;;48.33;40.33;;;;;2.20;61.46;100819.38;5031152;28;45463;-75
2022/01/22 09:42:32;;;;;;;;;38.33;31.67;;;;;2.23;61.59;100817.72;5028885;28;45520;-75
2022/01/22 09:44:57;;;;;;;;;38.00;32.33;;;;;2.29;61.63;100824.78;5034530;28;45398;-75
2022/01/22 09:47:23;;;;;;;;;35.67;30.67;;;;;2.33;60.37;100816.22;5035684;28;45380;-75
2022/01/22 09:49:48;;;;;;;;;30.67;28.33;;;;;2.37;60.67;100824.09;5030444;28;46412;-76
2022/01/22 09:52:15;;;;;;;;;17.50;14.00;;;;;2.44;60.30;100825.97;5029851;28;45496;-65
2022/01/22 09:54:41;;;;;;;;;37.00;31.33;;;;;2.48;60.38;100826.94;5010749;28;45392;-64
2022/01/22 09:57:08;;;;;;;;;33.67;27.33;;;;;2.52;59.99;100833.91;5035114;28;45358;-65
2022/01/22 09:59:34;;;;;;;;;28.67;27.33;;;;;2.57;59.49;100832.28;5032171;28;45518;-65
2022/01/22 10:02:12;;;;;;;;;32.33;27.00;;;;;2.61;59.64;100826.31;5029924;28;45382;-65
2022/01/22 10:04:39;;;;;;;;;32.33;28.33;;;;;2.66;59.99;100832.50;5025701;28;45499;-65
2022/01/22 10:07:13;;;;;;;;;35.00;32.00;;;;;2.70;59.69;100833.41;5025305;28;46026;-65
2022/01/22 10:09:54;;;;;;;;;34.67;30.33;;;;;2.75;59.28;100826.56;5034329;28;46599;-64
2022/01/22 10:12:21;;;;;;;;;48.00;31.67;;;;;2.80;59.49;100831.03;5035187;28;45548;-65
2022/01/22 10:15:05;;;;;;;;;43.00;40.00;;;;;2.87;59.11;100826.78;5033891;28;45498;-65
2022/01/22 10:17:53;;;;;;;;;33.00;31.67;;;;;2.92;58.76;100829.47;5014976;28;46298;-65
2022/01/22 10:20:40;;;;;;;;;36.00;31.67;;;;;2.98;58.71;100824.41;5033537;28;45489;-65
2022/01/22 10:23:10;;;;;;;;;35.33;30.33;;;;;2.98;58.57;100830.47;5032409;28;45999;-65
2022/01/22 10:25:44;;;;;;;;;35.33;32.67;;;;;3.05;58.76;100828.84;5029911;28;45498;-65
2022/01/22 10:28:20;;;;;;;;;31.67;27.33;;;;;3.08;58.52;100829.78;5035689;28;45208;-65
2022/01/22 10:30:47;;;;;;;;;32.33;29.33;;;;;3.13;58.28;100835.09;5034341;28;45593;-65
2022/01/22 10:33:32;;;;;;;;;28.67;26.67;;;;;3.19;58.41;100839.50;5017796;28;45517;-65
2022/01/22 10:36:21;;;;;;;;;31.67;27.00;;;;;3.25;57.88;100826.59;5034359;28;45318;-66
2022/01/22 10:38:54;;;;;;;;;21.33;17.67;;;;;3.29;57.54;100821.44;5021646;28;45432;-65
2022/01/22 10:41:36;;;;;;;;;24.67;23.00;;;;;3.34;57.33;100819.81;5025369;28;47360;-65
2022/01/22 10:44:03;;;;;;;;;23.00;21.67;;;;;3.40;57.47;100817.28;5034316;28;45523;-66
2022/01/22 10:49:19;;;;;;;;;26.33;24.67;;;;;3.45;56.95;100818.25;5034501;28;45519;-66
2022/01/22 10:51:52;;;;;;;;;28.67;26.00;;;;;3.48;56.92;100813.09;5034116;28;45477;-66
2022/01/22 10:54:21;;;;;;;;;32.67;23.33;;;;;3.51;57.31;100809.66;5011019;28;45523;-66
2022/01/22 10:56:47;;;;;;;;;29.33;25.33;;;;;3.54;56.78;100806.19;5034718;28;45492;-66
2022/01/22 10:59:16;;;;;;;;;28.33;24.33;;;;;3.59;56.56;100805.41;5034318;28;45394;-66
2022/01/22 11:01:45;;;;;;;;;25.67;23.00;;;;;3.62;56.58;100802.84;5034448;28;45380;-66
2022/01/22 11:04:12;;;;;;;;;28.67;22.33;;;;;3.68;56.81;100791.66;5034056;28;45576;-65
2022/01/22 11:07:02;;;;;;;;;24.00;23.00;;;;;3.72;56.17;100794.28;5016108;28;45500;-66
2022/01/22 11:09:31;;;;;;;;;18.33;16.33;;;;;3.77;56.14;100791.75;5034137;28;45344;-66
2022/01/22 11:11:59;;;;;;;;;33.00;26.67;;;;;3.78;56.41;100785.69;5014673;28;46854;-66
2022/01/22 11:14:28;;;;;;;;;26.00;23.33;;;;;3.81;56.07;100781.41;5033901;28;45465;-67
2022/01/22 11:16:54;;;;;;;;;19.67;17.33;;;;;3.86;56.02;100784.94;5039828;28;45250;-67
2022/01/22 11:19:22;;;;;;;;;28.33;25.00;;;;;3.91;55.89;100778.91;5033992;28;45254;-67
2022/01/22 11:21:51;;;;;;;;;28.00;28.00;;;;;3.96;56.00;100770.28;5032839;28;46067;-67
2022/01/22 11:24:21;;;;;;;;;26.33;21.67;;;;;3.96;55.89;100775.50;5027155;28;45430;-67
2022/01/22 11:26:54;;;;;;;;;27.00;24.67;;;;;3.96;55.38;100772.91;5015996;28;46065;-68
2022/01/22 11:29:27;;;;;;;;;22.00;19.33;;;;;3.94;55.51;100758.06;5019081;28;45530;-67
2022/01/22 11:31:55;;;;;;;;;27.00;25.33;;;;;3.97;55.33;100763.34;5006418;28;48405;-67
2022/01/22 11:34:24;;;;;;;;;27.00;22.00;;;;;4.00;55.50;100760.78;5023261;28;45358;-67
2022/01/22 11:37:09;;;;;;;;;26.00;23.00;;;;;4.04;55.20;100754.72;5030665;28;45436;-67
2022/01/22 12:00:24;;;;;;;;;24.33;21.00;;;;;4.48;53.37;100726.53;5064788;27;45458;-61
2022/01/22 12:03:08;;;;;;;;;21.00;20.00;;;;;4.45;53.21;100729.09;5042262;28;45547;-61
2022/01/22 12:05:58;;;;;;;;;20.33;20.33;;;;;4.44;53.61;100732.56;5052242;28;45389;-62
2022/01/22 12:08:25;;;;;;;;;25.00;23.33;;;;;4.45;53.48;100718.66;5029194;28;45611;-62
2022/01/22 12:16:40;;;;;;;;;21.00;18.33;;;;;4.56;53.73;100714.41;5045195;28;45485;-62
2022/01/22 12:19:37;;;;;;;;;28.00;24.00;;;;;4.66;53.50;100710.16;5025926;28;45391;-62
2022/01/22 12:33:30;;;;;;;;;14.67;12.00;;;;;5.00;52.69;100687.81;5022386;28;45485;-68
2022/01/22 12:36:00;;;;;;;;;25.00;23.00;;;;;5.03;52.37;100688.69;5008878;28;45624;-70
2022/01/22 12:40:59;;;;;;;;;22.67;19.67;;;;;5.08;52.55;100681.75;5007329;28;45487;-71
2022/01/22 12:43:35;;;;;;;;;24.00;23.33;;;;;5.11;52.45;100680.91;5003978;28;46320;-69
2022/01/22 12:46:03;;;;;;;;;29.00;25.33;;;;;5.15;52.41;100675.72;5008505;28;45457;-70
2022/01/22 12:48:33;;;;;;;;;23.67;20.00;;;;;5.20;52.40;100673.97;5004064;28;45445;-70
2022/01/22 12:51:04;;;;;;;;;21.67;20.33;;;;;5.20;52.13;100673.09;5009839;28;45493;-70
2022/01/22 12:53:33;;;;;;;;;22.67;21.00;;;;;5.21;51.83;100664.41;5001677;28;45449;-63
2022/01/22 12:56:14;;;;;;;;;24.67;24.67;;;;;5.25;52.16;100669.66;5000223;28;45568;-63
2022/01/22 12:58:41;;;;;;;;;18.67;17.67;;;;;5.30;52.16;100658.38;5003627;28;45513;-63
2022/01/22 13:01:22;;;;;;;;;23.67;20.00;;;;;5.34;51.87;100663.63;5007809;28;45496;-62
2022/01/22 13:03:54;;;;;;;;;30.33;25.33;;;;;5.40;52.13;100665.38;5008660;28;45431;-63
2022/01/22 13:06:25;;;;;;;;;24.00;19.67;;;;;5.42;51.89;100669.75;5007015;28;45483;-63
2022/01/22 13:08:57;;;;;;;;;20.67;19.00;;;;;5.44;51.63;100660.19;4999325;28;45516;-63
2022/01/22 13:11:28;;;;;;;;;23.67;18.67;;;;;5.46;51.69;100666.31;5008765;28;45557;-63
2022/01/22 13:13:54;;;;;;;;;23.67;20.67;;;;;5.48;51.67;100654.13;5007863;28;46614;-62
2022/01/22 13:16:21;;;;;;;;;26.33;24.33;;;;;5.50;51.51;100660.25;5007973;28;45503;-62
2022/01/22 13:18:58;;;;;;;;;24.00;22.67;;;;;5.54;51.71;100659.34;5008530;28;45473;-63
2022/01/22 13:21:32;;;;;;;;;20.33;20.33;;;;;5.57;51.54;100662.00;5007603;28;45456;-63
2022/01/22 13:24:07;;;;;;;;;22.67;22.67;;;;;5.57;51.42;100658.50;5005936;28;46287;-63
2022/01/22 13:26:44;;;;;;;;;25.00;23.33;;;;;5.55;51.32;100653.25;5004459;28;45541;-63
2022/01/22 13:29:21;;;;;;;;;20.67;19.00;;;;;5.56;51.07;100656.75;5006559;28;45332;-62
2022/01/22 13:33:13;;;;;;;;;21.00;17.33;;;;;5.56;51.26;100649.78;5007948;28;45413;-62
2022/01/22 13:49:05;;;;;;;;;18.00;18.00;;;;;5.67;51.00;100639.38;4993652;28;45493;-63
2022/01/22 13:51:33;;;;;;;;;40.67;35.00;;;;;5.70;50.47;100641.16;4988667;28;45489;-63
2022/01/22 13:54:01;;;;;;;;;20.33;14.67;;;;;5.74;50.91;100638.53;4992492;28;45441;-63